createdAt,value
2018-02-08T00:00:06.772Z,34.57
2018-02-08T00:02:34.545Z,35.90
2018-02-08T00:05:02.076Z,40.30
2018-02-08T00:07:29.664Z,33.43
2018-02-08T00:09:57.187Z,31.73
2018-02-08T00:12:24.698Z,43.83
2018-02-08T00:14:52.533Z,40.47
2018-02-08T00:17:20.064Z,37.87
2018-02-08T00:19:47.595Z,38.93
2018-02-08T00:22:27.049Z,29.23
2018-02-08T00:24:54.578Z,31.80
2018-02-08T00:27:22.131Z,25.63
2018-02-08T00:29:49.666Z,27.73
2018-02-08T00:32:17.216Z,25.27
2018-02-08T00:34:44.772Z,29.07
2018-02-08T00:37:12.285Z,24.80
2018-02-08T00:39:40.065Z,24.23
2018-02-08T00:42:07.583Z,23.73
2018-02-08T00:44:35.433Z,25.93
2018-02-08T00:47:02.977Z,25.35
2018-02-08T00:49:30.504Z,25.30
2018-02-08T00:51:58.016Z,22.50
2018-02-08T00:54:25.562Z,22.70
2018-02-08T00:56:53.434Z,25.57
2018-02-08T00:59:20.941Z,22.43
2018-02-08T01:01:48.478Z,23.73
2018-02-08T01:04:15.996Z,24.93
2018-02-08T01:06:43.505Z,22.80
2018-02-08T01:09:11.329Z,28.03
2018-02-08T01:11:38.855Z,25.70
2018-02-08T01:14:06.726Z,20.57
2018-02-08T01:16:34.278Z,27.10
2018-02-08T01:19:01.795Z,22.43
2018-02-08T01:21:29.363Z,24.83
2018-02-08T01:23:56.902Z,27.03
2018-02-08T01:26:24.416Z,27.33
2018-02-08T01:28:51.972Z,22.20
2018-02-08T01:31:19.542Z,24.53
2018-02-08T01:33:47.292Z,27.53
2018-02-08T01:36:14.818Z,22.47
2018-02-08T01:38:42.375Z,26.53
2018-02-08T01:41:10.132Z,24.10
2018-02-08T01:43:37.989Z,28.38
2018-02-08T01:46:05.535Z,25.90
2018-02-08T01:48:33.072Z,32.60
2018-02-08T01:51:00.600Z,22.50
2018-02-08T01:53:28.134Z,24.40
2018-02-08T01:55:55.651Z,29.50
2018-02-08T01:58:23.176Z,24.63
2018-02-08T02:00:50.754Z,26.87
2018-02-08T02:03:18.287Z,23.63
2018-02-08T02:05:45.828Z,24.67
2018-02-08T02:08:13.385Z,27.47
2018-02-08T02:10:40.907Z,21.90
2018-02-08T02:13:08.440Z,21.87
2018-02-08T02:15:36.003Z,22.70
2018-02-08T02:18:03.821Z,24.50
2018-02-08T02:20:31.369Z,22.90
2018-02-08T02:22:58.922Z,23.17
2018-02-08T02:25:26.442Z,22.80
2018-02-08T02:27:54.228Z,22.93
2018-02-08T02:30:21.757Z,22.10
2018-02-08T02:32:49.291Z,24.10
2018-02-08T02:35:16.811Z,27.10
2018-02-08T02:37:44.400Z,21.27
2018-02-08T02:40:11.910Z,22.23
2018-02-08T02:42:39.426Z,23.60
2018-02-08T02:45:06.957Z,22.90
2018-02-08T02:47:34.499Z,21.67
2018-02-08T02:50:02.052Z,26.40
2018-02-08T02:52:29.862Z,29.50
2018-02-08T02:54:57.389Z,22.47
2018-02-08T02:57:24.925Z,23.23
2018-02-08T02:59:52.501Z,24.27
2018-02-08T03:02:20.029Z,20.60
2018-02-08T03:04:47.562Z,26.67
2018-02-08T03:07:15.087Z,23.10
2018-02-08T03:09:42.621Z,24.10
2018-02-08T03:12:10.164Z,23.33
2018-02-08T03:14:38.011Z,27.67
2018-02-08T03:17:05.562Z,28.37
2018-02-08T03:19:33.078Z,31.90
2018-02-08T03:22:00.619Z,30.63
2018-02-08T03:24:28.155Z,32.13
2018-02-08T03:26:55.930Z,33.28
2018-02-08T03:29:23.450Z,32.93
2018-02-08T03:31:51.282Z,31.27
2018-02-08T03:34:19.096Z,33.93
2018-02-08T03:36:46.615Z,40.30
2018-02-08T03:39:14.180Z,40.75
2018-02-08T03:41:41.770Z,40.72
2018-02-08T03:44:09.277Z,38.65
2018-02-08T03:46:36.843Z,34.55
2018-02-08T03:49:04.364Z,33.70
2018-02-08T03:51:31.892Z,36.23
2018-02-08T03:53:59.726Z,41.03
2018-02-08T03:56:27.222Z,32.60
2018-02-08T03:58:54.743Z,38.77
2018-02-08T04:01:22.273Z,35.90
2018-02-08T04:03:49.788Z,36.60
2018-02-08T04:06:17.302Z,41.57
2018-02-08T04:08:44.867Z,38.00
2018-02-08T04:11:12.394Z,41.73
2018-02-08T04:13:39.920Z,43.53
2018-02-08T04:16:07.463Z,42.60
2018-02-08T04:18:34.993Z,45.35
2018-02-08T04:21:02.516Z,48.87
2018-02-08T04:23:30.053Z,36.63
2018-02-08T04:25:57.569Z,43.23
2018-02-08T04:28:25.101Z,36.70
2018-02-08T04:30:52.655Z,39.40
2018-02-08T04:33:20.190Z,38.07
2018-02-08T04:35:47.717Z,44.43
2018-02-08T04:38:18.119Z,36.87
2018-02-08T04:40:57.452Z,34.40
2018-02-08T04:43:36.643Z,36.17
2018-02-08T04:46:15.981Z,32.83
2018-02-08T04:48:43.537Z,37.70
2018-02-08T04:51:11.069Z,42.33
2018-02-08T04:53:38.965Z,39.67
2018-02-08T04:56:06.721Z,39.20
2018-02-08T04:58:34.297Z,33.43
2018-02-08T05:01:01.950Z,43.33
2018-02-08T05:03:29.532Z,34.08
2018-02-08T05:05:57.072Z,35.63
2018-02-08T05:08:24.639Z,33.63
2018-02-08T05:10:52.172Z,33.90
2018-02-08T05:13:19.700Z,41.33
2018-02-08T05:15:47.309Z,38.83
2018-02-08T05:18:14.835Z,37.67
2018-02-08T05:20:42.355Z,38.30
2018-02-08T05:23:09.892Z,39.67
2018-02-08T05:25:37.401Z,47.80
2018-02-08T05:28:04.924Z,39.70
2018-02-08T05:30:32.467Z,34.73
2018-02-08T05:32:59.998Z,36.27
2018-02-08T05:35:27.532Z,37.97
2018-02-08T05:37:55.073Z,40.90
2018-02-08T05:40:22.943Z,37.97
2018-02-08T05:42:50.466Z,41.87
2018-02-08T05:45:18.006Z,36.73
2018-02-08T05:47:45.529Z,37.23
2018-02-08T05:50:13.037Z,41.53
2018-02-08T05:52:40.841Z,42.40
2018-02-08T05:55:08.361Z,44.87
2018-02-08T05:57:36.161Z,41.93
2018-02-08T06:00:05.873Z,37.97
2018-02-08T06:02:33.488Z,41.27
2018-02-08T06:05:01.013Z,48.53
2018-02-08T06:07:28.567Z,45.93
2018-02-08T06:09:56.102Z,41.30
2018-02-08T06:12:23.642Z,48.73
2018-02-08T06:14:51.179Z,42.90
2018-02-08T06:17:18.688Z,46.73
2018-02-08T06:19:46.528Z,37.93
2018-02-08T06:22:14.064Z,44.53
2018-02-08T06:24:41.594Z,48.73
2018-02-08T06:27:09.117Z,60.03
2018-02-08T06:29:36.731Z,73.10
2018-02-08T06:32:04.313Z,95.65
2018-02-08T06:34:31.922Z,89.20
2018-02-08T06:36:59.443Z,88.50
2018-02-08T06:39:26.996Z,72.97
2018-02-08T06:41:54.558Z,74.95
2018-02-08T06:44:22.092Z,71.37
2018-02-08T06:46:49.637Z,60.10
2018-02-08T06:49:17.243Z,60.67
2018-02-08T06:51:45.066Z,70.23
2018-02-08T06:54:12.628Z,76.03
2018-02-08T06:56:40.144Z,62.47
2018-02-08T06:59:07.677Z,79.43
2018-02-08T07:01:35.209Z,68.23
2018-02-08T07:04:02.751Z,65.47
2018-02-08T07:06:30.271Z,73.20
2018-02-08T07:08:57.831Z,62.90
2018-02-08T07:11:25.344Z,64.78
2018-02-08T07:13:53.131Z,69.87
2018-02-08T07:16:20.672Z,77.17
2018-02-08T07:18:48.193Z,64.50
2018-02-08T07:21:15.736Z,76.18
2018-02-08T07:23:43.310Z,68.12
2018-02-08T07:26:10.845Z,81.00
2018-02-08T07:28:38.361Z,66.33
2018-02-08T07:31:05.894Z,65.40
2018-02-08T07:33:33.430Z,68.55
2018-02-08T07:36:00.987Z,64.57
2018-02-08T07:38:28.795Z,62.92
2018-02-08T07:40:56.404Z,72.23
2018-02-08T07:43:23.923Z,63.17
2018-02-08T07:45:51.489Z,73.22
2018-02-08T07:48:19.337Z,62.63
2018-02-08T07:50:47.004Z,67.00
2018-02-08T07:53:14.558Z,47.95
2018-02-08T07:55:42.487Z,53.58
2018-02-08T07:58:15.115Z,41.50
2018-02-08T08:00:42.782Z,46.88
2018-02-08T08:03:10.292Z,41.37
2018-02-08T08:05:37.811Z,42.90
2018-02-08T08:08:05.751Z,45.33
2018-02-08T08:10:34.121Z,44.90
2018-02-08T08:13:01.930Z,54.97
2018-02-08T08:15:29.479Z,49.33
2018-02-08T08:17:57.020Z,51.80
2018-02-08T08:20:24.541Z,47.93
2018-02-08T08:22:52.562Z,49.97
2018-02-08T08:25:20.097Z,43.40
2018-02-08T08:27:47.619Z,46.30
2018-02-08T08:30:15.178Z,47.07
2018-02-08T08:32:42.698Z,53.00
2018-02-08T08:35:10.219Z,57.50
2018-02-08T08:37:37.762Z,56.70
2018-02-08T08:40:05.304Z,55.07
2018-02-08T08:42:33.129Z,43.17
2018-02-08T08:45:00.974Z,55.40
2018-02-08T08:47:28.481Z,50.40
2018-02-08T08:49:55.994Z,46.13
2018-02-08T08:52:23.535Z,46.87
2018-02-08T08:54:51.070Z,59.50
2018-02-08T08:57:18.874Z,47.10
2018-02-08T08:59:46.415Z,51.27
2018-02-08T09:02:13.976Z,41.60
2018-02-08T09:04:41.489Z,52.60
2018-02-08T09:07:09.020Z,56.60
2018-02-08T09:09:36.568Z,53.63
2018-02-08T09:12:04.087Z,51.20
2018-02-08T09:14:31.608Z,57.37
2018-02-08T09:16:59.277Z,48.03
2018-02-08T09:19:26.789Z,52.60
2018-02-08T09:21:54.941Z,54.83
2018-02-08T09:24:22.479Z,51.10
2018-02-08T09:26:50.022Z,49.03
2018-02-08T09:29:17.561Z,49.90
2018-02-08T09:31:45.110Z,58.20
2018-02-08T09:34:12.732Z,71.90
2018-02-08T09:36:40.249Z,66.33
2018-02-08T09:39:07.793Z,61.03
2018-02-08T09:41:35.310Z,72.00
2018-02-08T09:44:02.841Z,64.70
2018-02-08T09:46:30.399Z,70.80
2018-02-08T09:48:57.936Z,75.47
2018-02-08T09:51:25.457Z,64.27
2018-02-08T09:53:53.378Z,66.67
2018-02-08T09:56:21.244Z,75.13
2018-02-08T09:58:48.762Z,57.40
2018-02-08T10:01:16.298Z,61.43
2018-02-08T10:03:43.824Z,65.53
2018-02-08T10:06:11.347Z,74.33
2018-02-08T10:08:38.892Z,68.40
2018-02-08T10:11:06.457Z,68.43
2018-02-08T10:13:33.989Z,69.53
2018-02-08T10:16:01.559Z,69.93
2018-02-08T10:18:29.083Z,80.27
2018-02-08T10:20:56.948Z,77.27
2018-02-08T10:23:24.503Z,76.13
2018-02-08T10:25:52.366Z,78.47
2018-02-08T10:28:19.896Z,66.20
2018-02-08T10:30:47.450Z,79.93
2018-02-08T10:33:14.984Z,85.00
2018-02-08T10:35:42.519Z,71.67
2018-02-08T10:38:10.370Z,76.07
2018-02-08T10:40:37.889Z,61.13
2018-02-08T10:43:05.413Z,73.97
2018-02-08T10:45:32.973Z,69.40
2018-02-08T10:48:00.536Z,58.33
2018-02-08T10:50:28.068Z,60.73
2018-02-08T10:52:55.655Z,61.60
2018-02-08T10:55:23.177Z,63.80
2018-02-08T10:57:50.711Z,64.17
2018-02-08T11:00:18.612Z,71.87
2018-02-08T11:02:46.135Z,71.50
2018-02-08T11:05:13.693Z,60.90
2018-02-08T11:07:41.242Z,63.27
2018-02-08T11:10:08.762Z,67.73
2018-02-08T11:12:36.269Z,65.47
2018-02-08T11:15:03.814Z,63.60
2018-02-08T11:17:31.335Z,58.40
2018-02-08T11:19:58.894Z,54.37
2018-02-08T11:22:26.445Z,54.00
2018-02-08T11:24:53.982Z,59.67
2018-02-08T11:27:21.495Z,53.53
2018-02-08T11:29:49.167Z,61.07
2018-02-08T11:32:16.713Z,51.03
2018-02-08T11:34:44.227Z,49.77
2018-02-08T11:37:11.744Z,50.87
2018-02-08T11:39:39.292Z,53.43
2018-02-08T11:42:06.828Z,54.90
2018-02-08T11:44:34.363Z,48.37
2018-02-08T11:47:01.919Z,48.70
2018-02-08T11:49:29.432Z,61.20
2018-02-08T11:51:57.006Z,58.43
2018-02-08T11:54:24.549Z,60.50
2018-02-08T11:56:52.084Z,72.77
2018-02-08T11:59:19.605Z,57.57
2018-02-08T12:01:47.145Z,64.30
2018-02-08T12:04:14.668Z,61.17
2018-02-08T12:06:42.186Z,57.00
2018-02-08T12:09:09.742Z,62.97
2018-02-08T12:11:37.278Z,52.40
2018-02-08T12:14:04.789Z,53.10
2018-02-08T12:16:32.599Z,48.23
2018-02-08T12:19:00.124Z,52.43
2018-02-08T12:21:27.645Z,45.43
2018-02-08T12:23:55.190Z,47.83
2018-02-08T12:26:22.731Z,45.97
2018-02-08T12:28:50.264Z,45.67
2018-02-08T12:31:17.820Z,42.00
2018-02-08T12:33:45.348Z,45.77
2018-02-08T12:36:12.863Z,45.50
2018-02-08T12:38:40.420Z,42.20
2018-02-08T12:41:08.113Z,40.00
2018-02-08T12:43:35.630Z,47.83
2018-02-08T12:46:03.342Z,51.87
2018-02-08T12:48:30.871Z,45.87
2018-02-08T12:50:58.422Z,49.17
2018-02-08T12:53:25.988Z,44.40
2018-02-08T12:55:53.509Z,49.10
2018-02-08T12:58:21.029Z,56.23
2018-02-08T13:00:48.593Z,42.10
2018-02-08T13:03:16.114Z,48.53
2018-02-08T13:05:43.915Z,48.63
2018-02-08T13:08:11.488Z,45.70
2018-02-08T13:10:39.076Z,38.83
2018-02-08T13:13:06.634Z,39.67
2018-02-08T13:15:34.188Z,39.60
2018-02-08T13:18:01.728Z,42.83
2018-02-08T13:20:29.253Z,33.07
2018-02-08T13:22:56.810Z,42.70
2018-02-08T13:25:24.703Z,41.80
2018-02-08T13:27:52.241Z,41.50
2018-02-08T13:30:19.922Z,27.80
2018-02-08T13:32:47.468Z,23.63
2018-02-08T13:35:15.014Z,28.97
2018-02-08T13:37:42.580Z,20.23
2018-02-08T13:43:12.260Z,15.23
2018-02-08T13:45:39.804Z,19.00
2018-02-08T13:48:24.300Z,20.23
2018-02-08T13:51:01.768Z,16.23
2018-02-08T13:53:35.027Z,13.70
2018-02-08T13:56:17.439Z,10.87
2018-02-08T14:01:50.447Z,14.60
2018-02-08T14:04:17.973Z,13.57
2018-02-08T14:06:45.505Z,20.13
2018-02-08T14:09:13.056Z,13.03
2018-02-08T14:11:40.789Z,14.53
2018-02-08T14:14:08.328Z,16.53
2018-02-08T14:16:35.884Z,15.27
2018-02-08T14:19:07.342Z,12.70
2018-02-08T14:21:34.946Z,11.70
2018-02-08T14:24:02.784Z,12.57
2018-02-08T14:26:31.580Z,14.13
2018-02-08T14:29:00.820Z,27.20
2018-02-08T14:31:28.361Z,14.00
2018-02-08T14:33:55.923Z,12.20
2018-02-08T14:36:23.556Z,18.93
2018-02-08T14:38:51.110Z,23.63
2018-02-08T14:41:18.653Z,24.47
2018-02-08T14:43:46.177Z,15.73
2018-02-08T14:46:13.722Z,14.30
2018-02-08T14:48:41.281Z,14.90
2018-02-08T14:51:08.800Z,17.97
2018-02-08T14:53:36.338Z,16.07
2018-02-08T14:56:03.867Z,20.40
2018-02-08T14:58:31.452Z,13.87
2018-02-08T15:00:59.017Z,17.43
2018-02-08T15:03:26.537Z,18.50
2018-02-08T15:05:54.066Z,12.50
2018-02-08T15:08:23.899Z,17.23
2018-02-08T15:10:51.438Z,16.27
2018-02-08T15:13:22.821Z,25.30
2018-02-08T15:15:50.478Z,24.17
2018-02-08T15:18:21.397Z,30.87
2018-02-08T15:20:48.948Z,25.13
2018-02-08T15:23:16.533Z,22.33
2018-02-08T15:25:44.050Z,29.30
2018-02-08T15:28:16.241Z,27.63
2018-02-08T15:30:43.929Z,40.97
2018-02-08T15:33:11.715Z,39.37
2018-02-08T15:35:39.239Z,42.63
2018-02-08T15:38:07.950Z,42.77
2018-02-08T15:40:35.538Z,36.77
2018-02-08T15:43:09.278Z,35.90
2018-02-08T15:45:41.610Z,33.43
2018-02-08T15:48:13.278Z,34.87
2018-02-08T15:50:58.497Z,30.30
2018-02-08T15:53:29.638Z,39.97
2018-02-08T15:55:57.620Z,51.80
2018-02-08T15:58:25.211Z,55.83
2018-02-08T16:00:52.808Z,66.77
2018-02-08T16:03:20.391Z,49.23
2018-02-08T16:05:47.921Z,52.57
2018-02-08T16:08:15.474Z,66.60
2018-02-08T16:10:44.231Z,44.63
2018-02-08T16:13:12.859Z,54.70
2018-02-08T16:15:40.490Z,52.27
2018-02-08T16:18:08.301Z,44.07
2018-02-08T16:20:35.871Z,53.57
2018-02-08T16:23:03.426Z,55.37
2018-02-08T16:25:31.188Z,47.93
2018-02-08T16:27:58.749Z,56.23
2018-02-08T16:30:26.308Z,65.67
2018-02-08T16:32:54.115Z,86.83
2018-02-08T16:35:21.984Z,91.53
2018-02-08T16:37:49.565Z,115.20
2018-02-08T16:40:17.115Z,95.53
2018-02-08T16:42:45.840Z,115.17
2018-02-08T16:45:13.408Z,100.57
2018-02-08T16:47:40.955Z,207.43
2018-02-08T16:50:08.493Z,203.30
2018-02-08T16:52:36.186Z,196.23
2018-02-08T16:55:03.756Z,144.63
2018-02-08T16:57:31.269Z,76.33
2018-02-08T16:59:58.840Z,152.47
2018-02-08T17:02:26.409Z,180.97
2018-02-08T17:04:53.972Z,142.90
2018-02-08T17:07:21.499Z,135.00
2018-02-08T17:09:49.073Z,116.33
2018-02-08T17:12:16.856Z,133.20
2018-02-08T17:14:45.368Z,120.17
2018-02-08T17:17:12.978Z,133.80
2018-02-08T17:19:40.606Z,109.07
2018-02-08T17:22:08.126Z,117.37
2018-02-08T17:24:35.633Z,99.70
2018-02-08T17:27:03.172Z,93.03
2018-02-08T17:29:30.711Z,64.70
2018-02-08T17:31:58.263Z,80.23
2018-02-08T17:34:25.807Z,55.57
2018-02-08T17:36:53.824Z,53.87
2018-02-08T17:39:21.339Z,64.60
2018-02-08T17:41:50.241Z,65.70
2018-02-08T17:44:17.890Z,60.90
2018-02-08T17:46:45.434Z,76.07
2018-02-08T17:49:13.441Z,48.87
2018-02-08T17:51:41.006Z,73.03
2018-02-08T17:54:08.563Z,58.07
2018-02-08T17:56:36.184Z,70.60
2018-02-08T17:59:03.910Z,98.10
2018-02-08T18:01:31.471Z,68.57
2018-02-08T18:03:59.157Z,93.07
2018-02-08T18:06:26.704Z,90.93
2018-02-08T18:08:54.264Z,91.07
2018-02-08T18:11:21.792Z,91.63
2018-02-08T18:13:49.596Z,129.53
2018-02-08T18:16:18.345Z,129.87
2018-02-08T18:18:45.892Z,151.37
2018-02-08T18:21:14.566Z,163.33
2018-02-08T18:23:42.156Z,182.97
2018-02-08T18:26:09.698Z,188.13
2018-02-08T18:28:37.264Z,205.27
2018-02-08T18:31:04.878Z,164.70
2018-02-08T18:33:32.751Z,187.67
2018-02-08T18:36:00.379Z,191.50
2018-02-08T18:38:27.962Z,186.10
2018-02-08T18:40:55.512Z,200.60
2018-02-08T18:43:23.097Z,223.87
2018-02-08T18:45:50.762Z,210.30
2018-02-08T18:48:18.294Z,156.03
2018-02-08T18:50:45.847Z,181.80
2018-02-08T18:53:13.472Z,130.57
2018-02-08T18:55:41.012Z,114.63
2018-02-08T18:58:08.561Z,115.57
2018-02-08T19:00:36.686Z,126.77
2018-02-08T19:03:04.528Z,158.73
2018-02-08T19:05:32.057Z,152.07
2018-02-08T19:08:00.023Z,147.20
2018-02-08T19:10:27.554Z,135.60
2018-02-08T19:12:55.474Z,127.90
2018-02-08T19:15:23.917Z,119.13
2018-02-08T19:17:52.272Z,105.83
2018-02-08T19:20:19.807Z,117.63
2018-02-08T19:22:47.370Z,123.73
2018-02-08T19:25:15.189Z,112.67
2018-02-08T19:27:43.912Z,101.87
2018-02-08T19:30:11.458Z,107.90
2018-02-08T19:32:39.898Z,103.90
2018-02-08T19:35:08.193Z,116.77
2018-02-08T19:37:36.091Z,110.10
2018-02-08T19:40:04.967Z,97.63
2018-02-08T19:42:34.377Z,112.93
2018-02-08T19:45:02.312Z,97.80
2018-02-08T19:47:29.857Z,87.70
2018-02-08T19:49:59.671Z,124.23
2018-02-08T19:52:28.008Z,138.73
2018-02-08T19:54:55.596Z,119.47
2018-02-08T19:57:23.891Z,137.17
2018-02-08T19:59:51.566Z,137.17
2018-02-08T20:02:19.395Z,131.83
2018-02-08T20:04:46.941Z,127.67
2018-02-08T20:07:14.702Z,123.80
2018-02-08T20:09:44.970Z,118.33
2018-02-08T20:12:13.468Z,126.60
2018-02-08T20:14:41.929Z,119.20
2018-02-08T20:17:09.501Z,123.07
2018-02-08T20:19:37.834Z,111.53
2018-02-08T20:22:05.441Z,110.10
2018-02-08T20:24:33.445Z,106.27
2018-02-08T20:27:03.467Z,107.17
2018-02-08T20:29:32.002Z,112.47
2018-02-08T20:31:59.731Z,126.27
2018-02-08T20:34:27.519Z,121.50
2018-02-08T20:36:58.533Z,121.70
2018-02-08T20:39:26.103Z,116.07
2018-02-08T20:41:55.242Z,126.83
2018-02-08T20:44:22.784Z,139.40
2018-02-08T20:46:50.338Z,117.60
2018-02-08T20:49:18.691Z,144.07
2018-02-08T20:51:47.400Z,116.07
2018-02-08T20:54:15.064Z,132.00
2018-02-08T20:56:42.597Z,234.60
2018-02-08T20:59:10.151Z,239.23
2018-02-08T21:01:37.774Z,237.10
2018-02-08T21:04:05.301Z,259.40
2018-02-08T21:06:32.826Z,274.40
2018-02-08T21:09:00.412Z,282.50
2018-02-08T21:11:27.966Z,247.73
2018-02-08T21:13:55.540Z,268.47
2018-02-08T21:16:23.110Z,257.40
2018-02-08T21:18:50.660Z,298.90
2018-02-08T21:21:18.208Z,284.83
2018-02-08T21:23:45.811Z,279.23
2018-02-08T21:26:13.421Z,341.00
2018-02-08T21:28:40.955Z,317.23
2018-02-08T21:31:09.163Z,296.30
2018-02-08T21:33:37.543Z,293.67
2018-02-08T21:36:05.373Z,206.53
2018-02-08T21:38:32.932Z,120.80
2018-02-08T21:41:00.471Z,247.20
2018-02-08T21:43:28.036Z,261.03
2018-02-08T21:45:55.679Z,256.43
2018-02-08T21:48:23.458Z,223.40
2018-02-08T21:50:51.029Z,218.43
2018-02-08T21:53:18.600Z,239.37
2018-02-08T21:55:46.131Z,234.17
2018-02-08T21:58:13.659Z,247.30
2018-02-08T22:00:41.251Z,254.00
2018-02-08T22:03:09.033Z,261.80
2018-02-08T22:05:36.560Z,172.30
2018-02-08T22:08:04.119Z,188.93
2018-02-08T22:10:31.684Z,173.53
2018-02-08T22:12:59.227Z,211.43
2018-02-08T22:15:26.783Z,212.73
2018-02-08T22:17:54.348Z,195.77
2018-02-08T22:20:21.873Z,165.97
2018-02-08T22:22:49.444Z,141.27
2018-02-08T22:25:16.975Z,165.23
2018-02-08T22:27:44.532Z,168.83
2018-02-08T22:30:12.164Z,136.10
2018-02-08T22:32:39.735Z,162.53
2018-02-08T22:35:07.261Z,150.30
2018-02-08T22:37:34.949Z,160.33
2018-02-08T22:40:02.489Z,131.93
2018-02-08T22:42:30.041Z,176.97
2018-02-08T22:44:57.873Z,167.40
2018-02-08T22:47:26.052Z,189.40
2018-02-08T22:49:53.719Z,148.87
2018-02-08T22:52:21.306Z,147.13
2018-02-08T22:54:48.869Z,155.97
2018-02-08T22:57:16.415Z,132.23
2018-02-08T22:59:44.033Z,125.77
2018-02-08T23:02:11.990Z,141.50
2018-02-08T23:04:39.509Z,143.07
2018-02-08T23:07:07.029Z,149.20
2018-02-08T23:09:35.794Z,131.90
2018-02-08T23:12:03.328Z,129.40
2018-02-08T23:14:30.943Z,99.10
2018-02-08T23:16:58.809Z,90.57
2018-02-08T23:19:26.339Z,96.40
2018-02-08T23:21:53.854Z,89.17
2018-02-08T23:24:21.393Z,95.07
2018-02-08T23:26:49.233Z,61.23
2018-02-08T23:29:16.754Z,87.83
2018-02-08T23:31:44.306Z,66.90
2018-02-08T23:34:12.801Z,67.57
2018-02-08T23:36:40.313Z,68.07
2018-02-08T23:39:07.842Z,57.60
2018-02-08T23:41:35.377Z,56.27
2018-02-08T23:44:03.210Z,45.30
2018-02-08T23:46:30.749Z,23.80
2018-02-08T23:48:58.301Z,21.03
2018-02-08T23:51:25.822Z,14.17
2018-02-08T23:53:53.357Z,14.17
2018-02-08T23:56:20.888Z,16.27
2018-02-08T23:58:48.404Z,14.83
